sensor_id;sensor_type;location;lat;lon;timestamp;pressure;altitude;pressure_sealevel;temperature
34023;BMP280;20673;48.980;8.138;2024-01-16T00:02:04;99707.72;;;0.28
34023;BMP280;20673;48.980;8.138;2024-01-16T00:04:31;99709.70;;;0.29
34023;BMP280;20673;48.980;8.138;2024-01-16T00:06:57;99708.77;;;0.36
34023;BMP280;20673;48.980;8.138;2024-01-16T00:09:23;99707.67;;;0.40
34023;BMP280;20673;48.980;8.138;2024-01-16T00:11:49;99713.20;;;0.48
34023;BMP280;20673;48.980;8.138;2024-01-16T00:14:15;99715.94;;;0.52
34023;BMP280;20673;48.980;8.138;2024-01-16T00:16:47;99718.68;;;0.53
34023;BMP280;20673;48.980;8.138;2024-01-16T00:19:16;99721.89;;;0.60
34023;BMP280;20673;48.980;8.138;2024-01-16T00:21:44;99716.79;;;0.61
34023;BMP280;20673;48.980;8.138;2024-01-16T00:24:14;99717.76;;;0.64
34023;BMP280;20673;48.980;8.138;2024-01-16T00:26:40;99716.92;;;0.67
34023;BMP280;20673;48.980;8.138;2024-01-16T00:29:06;99712.54;;;0.68
34023;BMP280;20673;48.980;8.138;2024-01-16T00:31:32;99707.00;;;0.73
34023;BMP280;20673;48.980;8.138;2024-01-16T00:33:58;99712.18;;;0.79
34023;BMP280;20673;48.980;8.138;2024-01-16T00:36:24;99705.69;;;0.75
34023;BMP280;20673;48.980;8.138;2024-01-16T00:38:51;99708.25;;;0.77
34023;BMP280;20673;48.980;8.138;2024-01-16T00:41:17;99706.34;;;0.77
34023;BMP280;20673;48.980;8.138;2024-01-16T00:43:44;99705.18;;;0.75
34023;BMP280;20673;48.980;8.138;2024-01-16T00:46:10;99706.15;;;0.76
34023;BMP280;20673;48.980;8.138;2024-01-16T00:48:37;99707.47;;;0.76
34023;BMP280;20673;48.980;8.138;2024-01-16T00:51:03;99709.86;;;0.75
34023;BMP280;20673;48.980;8.138;2024-01-16T00:53:29;99704.50;;;0.74
34023;BMP280;20673;48.980;8.138;2024-01-16T00:55:55;99710.89;;;0.74
34023;BMP280;20673;48.980;8.138;2024-01-16T00:58:22;99704.62;;;0.68
34023;BMP280;20673;48.980;8.138;2024-01-16T01:00:49;99713.48;;;0.67
34023;BMP280;20673;48.980;8.138;2024-01-16T01:03:15;99706.01;;;0.65
34023;BMP280;20673;48.980;8.138;2024-01-16T01:05:41;99710.41;;;0.64
34023;BMP280;20673;48.980;8.138;2024-01-16T01:08:07;99714.04;;;0.60
34023;BMP280;20673;48.980;8.138;2024-01-16T01:10:33;99712.61;;;0.63
34023;BMP280;20673;48.980;8.138;2024-01-16T01:13:00;99715.97;;;0.66
34023;BMP280;20673;48.980;8.138;2024-01-16T01:15:26;99719.53;;;0.67
34023;BMP280;20673;48.980;8.138;2024-01-16T01:17:52;99717.18;;;0.66
34023;BMP280;20673;48.980;8.138;2024-01-16T01:20:19;99715.62;;;0.68
34023;BMP280;20673;48.980;8.138;2024-01-16T01:22:46;99716.18;;;0.67
34023;BMP280;20673;48.980;8.138;2024-01-16T01:25:12;99725.17;;;0.67
34023;BMP280;20673;48.980;8.138;2024-01-16T01:27:39;99725.35;;;0.67
34023;BMP280;20673;48.980;8.138;2024-01-16T01:30:09;99732.56;;;0.66
34023;BMP280;20673;48.980;8.138;2024-01-16T01:32:39;99733.48;;;0.60
34023;BMP280;20673;48.980;8.138;2024-01-16T01:35:06;99738.11;;;0.59
34023;BMP280;20673;48.980;8.138;2024-01-16T01:37:32;99740.95;;;0.59
34023;BMP280;20673;48.980;8.138;2024-01-16T01:39:58;99737.76;;;0.57
34023;BMP280;20673;48.980;8.138;2024-01-16T01:42:24;99734.86;;;0.58
34023;BMP280;20673;48.980;8.138;2024-01-16T01:44:51;99726.63;;;0.55
34023;BMP280;20673;48.980;8.138;2024-01-16T01:47:17;99724.95;;;0.51
34023;BMP280;20673;48.980;8.138;2024-01-16T01:49:43;99730.79;;;0.48
34023;BMP280;20673;48.980;8.138;2024-01-16T01:52:10;99727.18;;;0.43
34023;BMP280;20673;48.980;8.138;2024-01-16T01:54:38;99737.08;;;0.37
34023;BMP280;20673;48.980;8.138;2024-01-16T01:57:05;99739.65;;;0.34
34023;BMP280;20673;48.980;8.138;2024-01-16T01:59:33;99730.36;;;0.27
34023;BMP280;20673;48.980;8.138;2024-01-16T02:01:59;99729.76;;;0.26
34023;BMP280;20673;48.980;8.138;2024-01-16T02:04:26;99726.94;;;0.24
34023;BMP280;20673;48.980;8.138;2024-01-16T02:06:54;99733.75;;;0.18
34023;BMP280;20673;48.980;8.138;2024-01-16T02:09:22;99732.40;;;0.12
34023;BMP280;20673;48.980;8.138;2024-01-16T02:11:49;99730.98;;;0.07
34023;BMP280;20673;48.980;8.138;2024-01-16T02:14:15;99736.93;;;0.00
34023;BMP280;20673;48.980;8.138;2024-01-16T02:16:42;99734.22;;;-0.07
34023;BMP280;20673;48.980;8.138;2024-01-16T02:19:10;99735.68;;;-0.15
34023;BMP280;20673;48.980;8.138;2024-01-16T02:21:41;99738.83;;;-0.25
34023;BMP280;20673;48.980;8.138;2024-01-16T02:24:09;99738.68;;;-0.32
34023;BMP280;20673;48.980;8.138;2024-01-16T02:26:37;99730.75;;;-0.39
34023;BMP280;20673;48.980;8.138;2024-01-16T02:29:03;99725.61;;;-0.45
34023;BMP280;20673;48.980;8.138;2024-01-16T02:31:31;99728.55;;;-0.54
34023;BMP280;20673;48.980;8.138;2024-01-16T02:33:58;99730.13;;;-0.58
34023;BMP280;20673;48.980;8.138;2024-01-16T02:36:25;99730.61;;;-0.64
34023;BMP280;20673;48.980;8.138;2024-01-16T02:38:51;99728.00;;;-0.69
34023;BMP280;20673;48.980;8.138;2024-01-16T02:41:18;99725.61;;;-0.74
34023;BMP280;20673;48.980;8.138;2024-01-16T02:43:45;99727.21;;;-0.76
34023;BMP280;20673;48.980;8.138;2024-01-16T02:46:11;99732.67;;;-0.77
34023;BMP280;20673;48.980;8.138;2024-01-16T02:48:37;99730.62;;;-0.79
34023;BMP280;20673;48.980;8.138;2024-01-16T02:51:04;99731.11;;;-0.82
34023;BMP280;20673;48.980;8.138;2024-01-16T02:53:31;99734.58;;;-0.84
34023;BMP280;20673;48.980;8.138;2024-01-16T02:55:57;99741.75;;;-0.87
34023;BMP280;20673;48.980;8.138;2024-01-16T02:58:27;99739.45;;;-0.86
34023;BMP280;20673;48.980;8.138;2024-01-16T03:00:54;99746.50;;;-0.87
34023;BMP280;20673;48.980;8.138;2024-01-16T03:03:20;99744.87;;;-0.90
34023;BMP280;20673;48.980;8.138;2024-01-16T03:05:47;99742.50;;;-0.99
34023;BMP280;20673;48.980;8.138;2024-01-16T03:08:13;99751.11;;;-0.98
34023;BMP280;20673;48.980;8.138;2024-01-16T03:10:39;99755.23;;;-1.03
34023;BMP280;20673;48.980;8.138;2024-01-16T03:13:06;99757.90;;;-1.09
34023;BMP280;20673;48.980;8.138;2024-01-16T03:15:32;99758.41;;;-1.16
34023;BMP280;20673;48.980;8.138;2024-01-16T03:17:59;99764.78;;;-1.20
34023;BMP280;20673;48.980;8.138;2024-01-16T03:20:27;99762.92;;;-1.20
34023;BMP280;20673;48.980;8.138;2024-01-16T03:22:53;99757.19;;;-1.26
34023;BMP280;20673;48.980;8.138;2024-01-16T03:25:19;99756.43;;;-1.35
34023;BMP280;20673;48.980;8.138;2024-01-16T03:27:47;99755.25;;;-1.39
34023;BMP280;20673;48.980;8.138;2024-01-16T03:30:13;99756.73;;;-1.47
34023;BMP280;20673;48.980;8.138;2024-01-16T03:32:39;99763.01;;;-1.50
34023;BMP280;20673;48.980;8.138;2024-01-16T03:35:07;99764.17;;;-1.54
34023;BMP280;20673;48.980;8.138;2024-01-16T03:37:33;99764.12;;;-1.64
34023;BMP280;20673;48.980;8.138;2024-01-16T03:40:01;99766.20;;;-1.66
34023;BMP280;20673;48.980;8.138;2024-01-16T03:42:27;99765.67;;;-1.74
34023;BMP280;20673;48.980;8.138;2024-01-16T03:44:53;99759.68;;;-1.68
34023;BMP280;20673;48.980;8.138;2024-01-16T03:47:19;99760.36;;;-1.73
34023;BMP280;20673;48.980;8.138;2024-01-16T03:49:46;99760.79;;;-1.82
34023;BMP280;20673;48.980;8.138;2024-01-16T03:52:12;99756.23;;;-1.86
34023;BMP280;20673;48.980;8.138;2024-01-16T03:54:38;99758.37;;;-1.89
34023;BMP280;20673;48.980;8.138;2024-01-16T03:57:04;99757.64;;;-1.90
34023;BMP280;20673;48.980;8.138;2024-01-16T03:59:30;99764.50;;;-1.91
34023;BMP280;20673;48.980;8.138;2024-01-16T04:01:56;99758.13;;;-1.98
34023;BMP280;20673;48.980;8.138;2024-01-16T04:04:23;99764.37;;;-2.04
34023;BMP280;20673;48.980;8.138;2024-01-16T04:06:49;99764.76;;;-2.11
34023;BMP280;20673;48.980;8.138;2024-01-16T04:09:16;99764.18;;;-2.18
34023;BMP280;20673;48.980;8.138;2024-01-16T04:11:42;99759.72;;;-2.25
34023;BMP280;20673;48.980;8.138;2024-01-16T04:14:08;99763.33;;;-2.32
34023;BMP280;20673;48.980;8.138;2024-01-16T04:16:34;99765.45;;;-2.35
34023;BMP280;20673;48.980;8.138;2024-01-16T04:19:00;99759.79;;;-2.43
34023;BMP280;20673;48.980;8.138;2024-01-16T04:21:26;99760.21;;;-2.38
34023;BMP280;20673;48.980;8.138;2024-01-16T04:23:52;99760.15;;;-2.32
34023;BMP280;20673;48.980;8.138;2024-01-16T04:26:18;99758.07;;;-2.26
34023;BMP280;20673;48.980;8.138;2024-01-16T04:28:44;99753.24;;;-2.24
34023;BMP280;20673;48.980;8.138;2024-01-16T04:31:11;99754.76;;;-2.22
34023;BMP280;20673;48.980;8.138;2024-01-16T04:33:38;99747.14;;;-2.09
34023;BMP280;20673;48.980;8.138;2024-01-16T04:36:05;99747.79;;;-2.05
34023;BMP280;20673;48.980;8.138;2024-01-16T04:38:32;99747.67;;;-2.06
34023;BMP280;20673;48.980;8.138;2024-01-16T04:41:03;99747.75;;;-2.04
34023;BMP280;20673;48.980;8.138;2024-01-16T04:43:30;99746.29;;;-2.00
34023;BMP280;20673;48.980;8.138;2024-01-16T04:45:56;99743.75;;;-1.98
34023;BMP280;20673;48.980;8.138;2024-01-16T04:48:22;99745.43;;;-1.91
34023;BMP280;20673;48.980;8.138;2024-01-16T04:50:48;99745.04;;;-1.88
34023;BMP280;20673;48.980;8.138;2024-01-16T04:53:14;99746.04;;;-1.95
34023;BMP280;20673;48.980;8.138;2024-01-16T04:55:40;99742.59;;;-2.05
34023;BMP280;20673;48.980;8.138;2024-01-16T04:58:07;99736.79;;;-2.16
34023;BMP280;20673;48.980;8.138;2024-01-16T05:00:33;99738.68;;;-2.24
34023;BMP280;20673;48.980;8.138;2024-01-16T05:02:59;99738.91;;;-2.30
34023;BMP280;20673;48.980;8.138;2024-01-16T05:05:25;99730.12;;;-2.38
34023;BMP280;20673;48.980;8.138;2024-01-16T05:07:51;99727.15;;;-2.45
34023;BMP280;20673;48.980;8.138;2024-01-16T05:10:17;99722.13;;;-2.50
34023;BMP280;20673;48.980;8.138;2024-01-16T05:12:43;99719.01;;;-2.53
34023;BMP280;20673;48.980;8.138;2024-01-16T05:15:10;99716.54;;;-2.56
34023;BMP280;20673;48.980;8.138;2024-01-16T05:17:40;99711.18;;;-2.55
34023;BMP280;20673;48.980;8.138;2024-01-16T05:20:07;99703.03;;;-2.54
34023;BMP280;20673;48.980;8.138;2024-01-16T05:22:34;99695.95;;;-2.54
34023;BMP280;20673;48.980;8.138;2024-01-16T05:25:00;99693.93;;;-2.56
34023;BMP280;20673;48.980;8.138;2024-01-16T05:27:27;99695.48;;;-2.59
34023;BMP280;20673;48.980;8.138;2024-01-16T05:29:53;99689.76;;;-2.62
34023;BMP280;20673;48.980;8.138;2024-01-16T05:32:19;99692.43;;;-2.69
34023;BMP280;20673;48.980;8.138;2024-01-16T05:34:45;99695.12;;;-2.73
34023;BMP280;20673;48.980;8.138;2024-01-16T05:37:11;99686.75;;;-2.73
34023;BMP280;20673;48.980;8.138;2024-01-16T05:39:38;99690.33;;;-2.78
34023;BMP280;20673;48.980;8.138;2024-01-16T05:42:05;99683.08;;;-2.81
34023;BMP280;20673;48.980;8.138;2024-01-16T05:44:31;99682.18;;;-2.84
34023;BMP280;20673;48.980;8.138;2024-01-16T05:46:57;99682.20;;;-2.86
34023;BMP280;20673;48.980;8.138;2024-01-16T05:49:23;99687.58;;;-2.90
34023;BMP280;20673;48.980;8.138;2024-01-16T05:51:50;99690.33;;;-2.89
34023;BMP280;20673;48.980;8.138;2024-01-16T05:54:16;99693.04;;;-2.91
34023;BMP280;20673;48.980;8.138;2024-01-16T05:56:42;99691.00;;;-2.96
34023;BMP280;20673;48.980;8.138;2024-01-16T05:59:08;99684.72;;;-2.99
34023;BMP280;20673;48.980;8.138;2024-01-16T06:01:34;99686.46;;;-3.01
34023;BMP280;20673;48.980;8.138;2024-01-16T06:04:00;99687.71;;;-3.02
34023;BMP280;20673;48.980;8.138;2024-01-16T06:06:26;99690.43;;;-3.00
34023;BMP280;20673;48.980;8.138;2024-01-16T06:08:52;99687.61;;;-2.97
34023;BMP280;20673;48.980;8.138;2024-01-16T06:11:18;99689.79;;;-2.91
34023;BMP280;20673;48.980;8.138;2024-01-16T06:13:45;99693.47;;;-2.89
34023;BMP280;20673;48.980;8.138;2024-01-16T06:16:12;99693.17;;;-2.86
34023;BMP280;20673;48.980;8.138;2024-01-16T06:18:38;99694.40;;;-2.82
34023;BMP280;20673;48.980;8.138;2024-01-16T06:21:04;99693.86;;;-2.79
34023;BMP280;20673;48.980;8.138;2024-01-16T06:23:30;99701.36;;;-2.77
34023;BMP280;20673;48.980;8.138;2024-01-16T06:25:57;99699.87;;;-2.75
34023;BMP280;20673;48.980;8.138;2024-01-16T06:28:23;99698.50;;;-2.71
34023;BMP280;20673;48.980;8.138;2024-01-16T06:30:49;99702.86;;;-2.54
34023;BMP280;20673;48.980;8.138;2024-01-16T06:33:15;99696.64;;;-2.43
34023;BMP280;20673;48.980;8.138;2024-01-16T06:35:41;99689.31;;;-2.39
34023;BMP280;20673;48.980;8.138;2024-01-16T06:38:07;99685.45;;;-2.39
34023;BMP280;20673;48.980;8.138;2024-01-16T06:40:33;99685.90;;;-2.43
34023;BMP280;20673;48.980;8.138;2024-01-16T06:42:59;99684.62;;;-2.46
34023;BMP280;20673;48.980;8.138;2024-01-16T06:45:25;99680.38;;;-2.48
34023;BMP280;20673;48.980;8.138;2024-01-16T06:47:52;99685.15;;;-2.48
34023;BMP280;20673;48.980;8.138;2024-01-16T06:50:18;99685.55;;;-2.47
34023;BMP280;20673;48.980;8.138;2024-01-16T06:52:45;99674.22;;;-2.45
34023;BMP280;20673;48.980;8.138;2024-01-16T06:55:11;99671.68;;;-2.37
34023;BMP280;20673;48.980;8.138;2024-01-16T06:57:37;99671.26;;;-2.33
34023;BMP280;20673;48.980;8.138;2024-01-16T07:00:05;99668.21;;;-2.31
34023;BMP280;20673;48.980;8.138;2024-01-16T07:02:33;99673.54;;;-2.29
34023;BMP280;20673;48.980;8.138;2024-01-16T07:04:59;99667.31;;;-2.27
34023;BMP280;20673;48.980;8.138;2024-01-16T07:07:25;99667.31;;;-2.27
34023;BMP280;20673;48.980;8.138;2024-01-16T07:09:52;99668.40;;;-2.28
34023;BMP280;20673;48.980;8.138;2024-01-16T07:12:18;99671.97;;;-2.27
34023;BMP280;20673;48.980;8.138;2024-01-16T07:14:44;99674.15;;;-2.30
34023;BMP280;20673;48.980;8.138;2024-01-16T07:17:10;99677.76;;;-2.33
34023;BMP280;20673;48.980;8.138;2024-01-16T07:19:36;99682.06;;;-2.35
34023;BMP280;20673;48.980;8.138;2024-01-16T07:22:02;99679.18;;;-2.38
34023;BMP280;20673;48.980;8.138;2024-01-16T07:24:29;99681.00;;;-2.39
34023;BMP280;20673;48.980;8.138;2024-01-16T07:26:55;99679.12;;;-2.39
34023;BMP280;20673;48.980;8.138;2024-01-16T07:29:21;99678.72;;;-2.42
34023;BMP280;20673;48.980;8.138;2024-01-16T07:31:47;99680.54;;;-2.40
34023;BMP280;20673;48.980;8.138;2024-01-16T07:34:13;99682.86;;;-2.39
34023;BMP280;20673;48.980;8.138;2024-01-16T07:36:41;99684.31;;;-2.39
34023;BMP280;20673;48.980;8.138;2024-01-16T07:39:07;99686.20;;;-2.36
34023;BMP280;20673;48.980;8.138;2024-01-16T07:41:34;99686.58;;;-2.34
34023;BMP280;20673;48.980;8.138;2024-01-16T07:44:00;99685.70;;;-2.31
34023;BMP280;20673;48.980;8.138;2024-01-16T07:46:26;99690.91;;;-2.28
34023;BMP280;20673;48.980;8.138;2024-01-16T07:48:52;99688.29;;;-2.27
34023;BMP280;20673;48.980;8.138;2024-01-16T07:51:18;99687.79;;;-2.23
34023;BMP280;20673;48.980;8.138;2024-01-16T07:53:44;99685.67;;;-2.15
34023;BMP280;20673;48.980;8.138;2024-01-16T07:56:10;99684.71;;;-2.12
34023;BMP280;20673;48.980;8.138;2024-01-16T07:58:37;99684.53;;;-2.07
34023;BMP280;20673;48.980;8.138;2024-01-16T08:01:03;99682.23;;;-2.03
34023;BMP280;20673;48.980;8.138;2024-01-16T08:03:29;99683.45;;;-1.99
34023;BMP280;20673;48.980;8.138;2024-01-16T08:05:56;99691.31;;;-1.94
34023;BMP280;20673;48.980;8.138;2024-01-16T08:08:22;99695.70;;;-1.91
34023;BMP280;20673;48.980;8.138;2024-01-16T08:10:48;99701.15;;;-1.87
34023;BMP280;20673;48.980;8.138;2024-01-16T08:13:14;99697.91;;;-1.87
34023;BMP280;20673;48.980;8.138;2024-01-16T08:15:41;99708.93;;;-1.78
34023;BMP280;20673;48.980;8.138;2024-01-16T08:18:07;99707.81;;;-1.69
34023;BMP280;20673;48.980;8.138;2024-01-16T08:20:33;99707.12;;;-1.64
34023;BMP280;20673;48.980;8.138;2024-01-16T08:22:59;99702.86;;;-1.59
34023;BMP280;20673;48.980;8.138;2024-01-16T08:25:25;99707.64;;;-1.52
34023;BMP280;20673;48.980;8.138;2024-01-16T08:27:51;99703.21;;;-1.48
34023;BMP280;20673;48.980;8.138;2024-01-16T08:30:17;99702.01;;;-1.46
34023;BMP280;20673;48.980;8.138;2024-01-16T08:32:44;99704.61;;;-1.38
34023;BMP280;20673;48.980;8.138;2024-01-16T08:35:10;99702.79;;;-1.34
34023;BMP280;20673;48.980;8.138;2024-01-16T08:37:36;99701.09;;;-1.28
34023;BMP280;20673;48.980;8.138;2024-01-16T08:40:03;99701.40;;;-1.21
34023;BMP280;20673;48.980;8.138;2024-01-16T08:42:30;99707.84;;;-1.21
34023;BMP280;20673;48.980;8.138;2024-01-16T08:44:56;99714.03;;;-1.14
34023;BMP280;20673;48.980;8.138;2024-01-16T08:47:22;99709.75;;;-1.06
34023;BMP280;20673;48.980;8.138;2024-01-16T08:49:48;99707.06;;;-1.01
34023;BMP280;20673;48.980;8.138;2024-01-16T08:52:15;99711.56;;;-0.92
34023;BMP280;20673;48.980;8.138;2024-01-16T08:54:41;99714.92;;;-0.86
34023;BMP280;20673;48.980;8.138;2024-01-16T08:57:07;99715.11;;;-0.87
34023;BMP280;20673;48.980;8.138;2024-01-16T08:59:35;99727.36;;;-0.76
34023;BMP280;20673;48.980;8.138;2024-01-16T09:02:01;99728.50;;;-0.73
34023;BMP280;20673;48.980;8.138;2024-01-16T09:04:29;99732.34;;;-0.62
34023;BMP280;20673;48.980;8.138;2024-01-16T09:06:55;99729.75;;;-0.56
34023;BMP280;20673;48.980;8.138;2024-01-16T09:09:21;99729.95;;;-0.54
34023;BMP280;20673;48.980;8.138;2024-01-16T09:11:47;99729.90;;;-0.50
34023;BMP280;20673;48.980;8.138;2024-01-16T09:14:13;99729.34;;;-0.45
34023;BMP280;20673;48.980;8.138;2024-01-16T09:16:39;99728.16;;;-0.38
34023;BMP280;20673;48.980;8.138;2024-01-16T09:19:06;99716.04;;;-0.34
34023;BMP280;20673;48.980;8.138;2024-01-16T09:21:32;99719.59;;;-0.26
34023;BMP280;20673;48.980;8.138;2024-01-16T09:23:58;99717.68;;;-0.20
34023;BMP280;20673;48.980;8.138;2024-01-16T09:26:24;99722.15;;;-0.11
34023;BMP280;20673;48.980;8.138;2024-01-16T09:28:50;99724.08;;;-0.02
34023;BMP280;20673;48.980;8.138;2024-01-16T09:31:16;99726.98;;;0.05
34023;BMP280;20673;48.980;8.138;2024-01-16T09:33:42;99726.28;;;0.12
34023;BMP280;20673;48.980;8.138;2024-01-16T09:36:09;99734.58;;;0.16
34023;BMP280;20673;48.980;8.138;2024-01-16T09:38:35;99732.05;;;0.29
34023;BMP280;20673;48.980;8.138;2024-01-16T09:41:01;99726.81;;;0.29
34023;BMP280;20673;48.980;8.138;2024-01-16T09:43:31;99735.43;;;0.25
34023;BMP280;20673;48.980;8.138;2024-01-16T09:46:01;99737.68;;;0.31
34023;BMP280;20673;48.980;8.138;2024-01-16T09:48:30;99725.95;;;0.40
34023;BMP280;20673;48.980;8.138;2024-01-16T09:50:57;99732.15;;;0.58
34023;BMP280;20673;48.980;8.138;2024-01-16T09:53:24;99734.79;;;0.66
34023;BMP280;20673;48.980;8.138;2024-01-16T09:55:53;99738.68;;;0.98
34023;BMP280;20673;48.980;8.138;2024-01-16T09:58:21;99731.99;;;1.16
34023;BMP280;20673;48.980;8.138;2024-01-16T10:00:47;99727.11;;;0.97
34023;BMP280;20673;48.980;8.138;2024-01-16T10:03:14;99716.40;;;0.97
34023;BMP280;20673;48.980;8.138;2024-01-16T10:05:42;99709.08;;;0.84
34023;BMP280;20673;48.980;8.138;2024-01-16T10:08:10;99706.16;;;0.78
34023;BMP280;20673;48.980;8.138;2024-01-16T10:10:36;99699.00;;;0.79
34023;BMP280;20673;48.980;8.138;2024-01-16T10:13:03;99694.37;;;0.81
34023;BMP280;20673;48.980;8.138;2024-01-16T10:15:31;99687.53;;;0.87
34023;BMP280;20673;48.980;8.138;2024-01-16T10:17:58;99691.12;;;1.06
34023;BMP280;20673;48.980;8.138;2024-01-16T10:20:33;99695.81;;;1.44
34023;BMP280;20673;48.980;8.138;2024-01-16T10:23:00;99679.83;;;2.05
34023;BMP280;20673;48.980;8.138;2024-01-16T10:25:26;99686.03;;;2.59
34023;BMP280;20673;48.980;8.138;2024-01-16T10:28:04;99682.70;;;3.08
34023;BMP280;20673;48.980;8.138;2024-01-16T10:30:30;99675.62;;;3.63
34023;BMP280;20673;48.980;8.138;2024-01-16T10:33:13;99672.53;;;4.46
34023;BMP280;20673;48.980;8.138;2024-01-16T10:35:40;99683.51;;;3.93
34023;BMP280;20673;48.980;8.138;2024-01-16T10:38:07;99675.45;;;3.83
34023;BMP280;20673;48.980;8.138;2024-01-16T10:40:33;99659.63;;;3.41
34023;BMP280;20673;48.980;8.138;2024-01-16T10:43:03;99662.83;;;3.16
34023;BMP280;20673;48.980;8.138;2024-01-16T10:45:31;99669.84;;;2.53
34023;BMP280;20673;48.980;8.138;2024-01-16T10:48:07;99680.36;;;2.82
34023;BMP280;20673;48.980;8.138;2024-01-16T10:50:36;99674.96;;;3.49
34023;BMP280;20673;48.980;8.138;2024-01-16T10:53:06;99664.05;;;4.09
34023;BMP280;20673;48.980;8.138;2024-01-16T10:55:53;99661.37;;;4.47
34023;BMP280;20673;48.980;8.138;2024-01-16T10:58:08;99655.29;;;5.33
34023;BMP280;20673;48.980;8.138;2024-01-16T11:00:39;99640.09;;;6.05
34023;BMP280;20673;48.980;8.138;2024-01-16T11:03:09;99639.72;;;6.00
34023;BMP280;20673;48.980;8.138;2024-01-16T11:05:37;99636.19;;;6.13
34023;BMP280;20673;48.980;8.138;2024-01-16T11:08:06;99634.18;;;6.49
34023;BMP280;20673;48.980;8.138;2024-01-16T11:10:35;99631.08;;;6.42
34023;BMP280;20673;48.980;8.138;2024-01-16T11:13:02;99631.78;;;6.49
34023;BMP280;20673;48.980;8.138;2024-01-16T11:15:31;99628.31;;;7.17
34023;BMP280;20673;48.980;8.138;2024-01-16T11:17:59;99624.43;;;7.27
34023;BMP280;20673;48.980;8.138;2024-01-16T11:20:28;99613.18;;;7.44
34023;BMP280;20673;48.980;8.138;2024-01-16T11:22:56;99606.92;;;8.21
34023;BMP280;20673;48.980;8.138;2024-01-16T11:25:33;99602.61;;;8.10
34023;BMP280;20673;48.980;8.138;2024-01-16T11:28:08;99596.90;;;8.52
34023;BMP280;20673;48.980;8.138;2024-01-16T11:30:35;99597.53;;;8.40
34023;BMP280;20673;48.980;8.138;2024-01-16T11:33:02;99590.41;;;8.40
34023;BMP280;20673;48.980;8.138;2024-01-16T11:35:35;99594.12;;;8.27
34023;BMP280;20673;48.980;8.138;2024-01-16T11:38:17;99587.68;;;9.11
34023;BMP280;20673;48.980;8.138;2024-01-16T11:40:44;99590.58;;;9.07
34023;BMP280;20673;48.980;8.138;2024-01-16T11:46:06;99586.31;;;8.82
34023;BMP280;20673;48.980;8.138;2024-01-16T11:48:36;99578.02;;;8.71
34023;BMP280;20673;48.980;8.138;2024-01-16T11:51:23;99569.23;;;9.59
34023;BMP280;20673;48.980;8.138;2024-01-16T11:53:50;99569.84;;;8.62
34023;BMP280;20673;48.980;8.138;2024-01-16T11:56:34;99565.74;;;8.52
34023;BMP280;20673;48.980;8.138;2024-01-16T12:01:58;99554.78;;;8.99
34023;BMP280;20673;48.980;8.138;2024-01-16T12:04:24;99544.22;;;9.42
34023;BMP280;20673;48.980;8.138;2024-01-16T12:07:00;99535.33;;;9.66
34023;BMP280;20673;48.980;8.138;2024-01-16T12:09:28;99534.81;;;10.20
34023;BMP280;20673;48.980;8.138;2024-01-16T12:12:02;99533.18;;;9.78
34023;BMP280;20673;48.980;8.138;2024-01-16T12:14:29;99529.56;;;9.66
34023;BMP280;20673;48.980;8.138;2024-01-16T12:17:11;99530.04;;;8.90
34023;BMP280;20673;48.980;8.138;2024-01-16T12:19:38;99528.90;;;9.09
34023;BMP280;20673;48.980;8.138;2024-01-16T12:22:16;99531.92;;;8.81
34023;BMP280;20673;48.980;8.138;2024-01-16T12:24:44;99532.90;;;8.91
34023;BMP280;20673;48.980;8.138;2024-01-16T12:27:11;99529.99;;;9.02
34023;BMP280;20673;48.980;8.138;2024-01-16T12:29:38;99531.12;;;8.73
34023;BMP280;20673;48.980;8.138;2024-01-16T12:32:14;99521.79;;;9.10
34023;BMP280;20673;48.980;8.138;2024-01-16T12:34:46;99516.31;;;9.23
34023;BMP280;20673;48.980;8.138;2024-01-16T12:37:14;99511.00;;;9.14
34023;BMP280;20673;48.980;8.138;2024-01-16T12:39:41;99513.67;;;8.86
34023;BMP280;20673;48.980;8.138;2024-01-16T12:42:10;99508.43;;;8.77
34023;BMP280;20673;48.980;8.138;2024-01-16T12:44:37;99513.87;;;8.60
34023;BMP280;20673;48.980;8.138;2024-01-16T12:47:04;99506.50;;;8.42
34023;BMP280;20673;48.980;8.138;2024-01-16T12:49:30;99508.10;;;8.65
34023;BMP280;20673;48.980;8.138;2024-01-16T12:52:20;99500.83;;;8.46
34023;BMP280;20673;48.980;8.138;2024-01-16T12:54:48;99498.40;;;8.95
34023;BMP280;20673;48.980;8.138;2024-01-16T12:57:19;99493.93;;;8.40
34023;BMP280;20673;48.980;8.138;2024-01-16T12:59:47;99484.95;;;8.32
34023;BMP280;20673;48.980;8.138;2024-01-16T13:02:24;99479.43;;;8.56
34023;BMP280;20673;48.980;8.138;2024-01-16T13:04:59;99479.69;;;8.04
34023;BMP280;20673;48.980;8.138;2024-01-16T13:07:26;99477.14;;;8.31
34023;BMP280;20673;48.980;8.138;2024-01-16T13:10:12;99475.71;;;8.32
34023;BMP280;20673;48.980;8.138;2024-01-16T13:12:41;99467.80;;;8.53
34023;BMP280;20673;48.980;8.138;2024-01-16T13:15:08;99467.09;;;7.83
34023;BMP280;20673;48.980;8.138;2024-01-16T13:17:36;99455.51;;;8.11
34023;BMP280;20673;48.980;8.138;2024-01-16T13:20:03;99450.83;;;7.73
34023;BMP280;20673;48.980;8.138;2024-01-16T13:22:31;99453.47;;;7.96
34023;BMP280;20673;48.980;8.138;2024-01-16T13:24:57;99452.18;;;8.17
34023;BMP280;20673;48.980;8.138;2024-01-16T13:27:23;99448.04;;;8.55
34023;BMP280;20673;48.980;8.138;2024-01-16T13:29:51;99456.30;;;8.78
34023;BMP280;20673;48.980;8.138;2024-01-16T13:32:17;99449.00;;;8.72
34023;BMP280;20673;48.980;8.138;2024-01-16T13:34:43;99444.13;;;8.58
34023;BMP280;20673;48.980;8.138;2024-01-16T13:37:11;99435.65;;;8.18
34023;BMP280;20673;48.980;8.138;2024-01-16T13:39:39;99424.88;;;8.38
34023;BMP280;20673;48.980;8.138;2024-01-16T13:42:06;99423.12;;;8.44
34023;BMP280;20673;48.980;8.138;2024-01-16T13:44:32;99414.48;;;7.98
34023;BMP280;20673;48.980;8.138;2024-01-16T13:46:58;99410.36;;;8.35
34023;BMP280;20673;48.980;8.138;2024-01-16T13:49:24;99419.48;;;8.44
34023;BMP280;20673;48.980;8.138;2024-01-16T13:51:50;99419.00;;;8.27
34023;BMP280;20673;48.980;8.138;2024-01-16T13:54:17;99413.84;;;8.20
34023;BMP280;20673;48.980;8.138;2024-01-16T13:56:43;99418.00;;;8.16
34023;BMP280;20673;48.980;8.138;2024-01-16T13:59:09;99409.83;;;8.63
34023;BMP280;20673;48.980;8.138;2024-01-16T14:01:36;99413.32;;;8.49
34023;BMP280;20673;48.980;8.138;2024-01-16T14:04:02;99412.26;;;8.28
34023;BMP280;20673;48.980;8.138;2024-01-16T14:06:28;99415.06;;;8.05
34023;BMP280;20673;48.980;8.138;2024-01-16T14:08:56;99411.72;;;8.16
34023;BMP280;20673;48.980;8.138;2024-01-16T14:11:22;99413.34;;;8.31
34023;BMP280;20673;48.980;8.138;2024-01-16T14:13:48;99415.94;;;8.66
34023;BMP280;20673;48.980;8.138;2024-01-16T14:16:14;99424.67;;;8.50
34023;BMP280;20673;48.980;8.138;2024-01-16T14:18:40;99421.65;;;8.27
34023;BMP280;20673;48.980;8.138;2024-01-16T14:21:06;99420.68;;;8.65